sensor_id;sensor_type;location;lat;lon;timestamp;P1;durP1;ratioP1;P2;durP2;ratioP2
19645;SDS011;9971;52.446;13.452;2022-12-07T00:02:05;7.45;;;6.20;;
19645;SDS011;9971;52.446;13.452;2022-12-07T00:07:07;5.87;;;5.25;;
19645;SDS011;9971;52.446;13.452;2022-12-07T00:12:10;6.87;;;5.80;;
19645;SDS011;9971;52.446;13.452;2022-12-07T00:17:12;6.70;;;5.90;;
19645;SDS011;9971;52.446;13.452;2022-12-07T00:22:15;6.45;;;5.80;;
19645;SDS011;9971;52.446;13.452;2022-12-07T00:27:17;6.58;;;5.85;;
19645;SDS011;9971;52.446;13.452;2022-12-07T00:32:20;5.95;;;4.62;;
19645;SDS011;9971;52.446;13.452;2022-12-07T00:37:22;7.00;;;5.30;;
19645;SDS011;9971;52.446;13.452;2022-12-07T00:42:25;5.62;;;5.03;;
19645;SDS011;9971;52.446;13.452;2022-12-07T00:47:27;5.92;;;5.33;;
19645;SDS011;9971;52.446;13.452;2022-12-07T00:52:30;7.08;;;5.05;;
19645;SDS011;9971;52.446;13.452;2022-12-07T00:57:32;5.20;;;4.47;;
19645;SDS011;9971;52.446;13.452;2022-12-07T01:02:35;4.85;;;4.45;;
19645;SDS011;9971;52.446;13.452;2022-12-07T01:07:37;4.78;;;4.37;;
19645;SDS011;9971;52.446;13.452;2022-12-07T01:12:40;4.22;;;3.83;;
19645;SDS011;9971;52.446;13.452;2022-12-07T01:17:42;4.43;;;3.90;;
19645;SDS011;9971;52.446;13.452;2022-12-07T01:22:44;5.67;;;4.72;;
19645;SDS011;9971;52.446;13.452;2022-12-07T01:27:47;4.83;;;4.28;;
19645;SDS011;9971;52.446;13.452;2022-12-07T01:32:49;4.45;;;3.92;;
19645;SDS011;9971;52.446;13.452;2022-12-07T01:37:52;4.28;;;3.87;;
19645;SDS011;9971;52.446;13.452;2022-12-07T01:42:54;4.58;;;4.17;;
19645;SDS011;9971;52.446;13.452;2022-12-07T01:47:56;3.87;;;3.58;;
19645;SDS011;9971;52.446;13.452;2022-12-07T01:52:59;4.03;;;3.63;;
19645;SDS011;9971;52.446;13.452;2022-12-07T01:58:01;4.43;;;4.07;;
19645;SDS011;9971;52.446;13.452;2022-12-07T02:03:05;4.42;;;3.60;;
19645;SDS011;9971;52.446;13.452;2022-12-07T02:08:05;3.92;;;3.40;;
19645;SDS011;9971;52.446;13.452;2022-12-07T02:13:11;3.67;;;3.37;;
19645;SDS011;9971;52.446;13.452;2022-12-07T02:18:16;3.53;;;3.20;;
19645;SDS011;9971;52.446;13.452;2022-12-07T02:23:27;4.30;;;3.90;;
19645;SDS011;9971;52.446;13.452;2022-12-07T02:28:33;4.25;;;3.83;;
19645;SDS011;9971;52.446;13.452;2022-12-07T02:33:36;3.87;;;3.58;;
19645;SDS011;9971;52.446;13.452;2022-12-07T02:38:40;4.40;;;4.00;;
19645;SDS011;9971;52.446;13.452;2022-12-07T02:43:50;5.67;;;4.10;;
19645;SDS011;9971;52.446;13.452;2022-12-07T02:48:54;4.40;;;3.97;;
19645;SDS011;9971;52.446;13.452;2022-12-07T02:53:56;4.17;;;3.87;;
19645;SDS011;9971;52.446;13.452;2022-12-07T03:04:27;3.83;;;3.53;;
19645;SDS011;9971;52.446;13.452;2022-12-07T03:09:27;3.87;;;3.13;;
19645;SDS011;9971;52.446;13.452;2022-12-07T03:14:31;2.75;;;2.55;;
19645;SDS011;9971;52.446;13.452;2022-12-07T03:19:33;3.60;;;3.30;;
19645;SDS011;9971;52.446;13.452;2022-12-07T03:24:37;3.70;;;3.40;;
19645;SDS011;9971;52.446;13.452;2022-12-07T03:29:39;4.60;;;4.10;;
19645;SDS011;9971;52.446;13.452;2022-12-07T03:34:42;4.97;;;4.30;;
19645;SDS011;9971;52.446;13.452;2022-12-07T03:39:52;4.85;;;4.08;;
19645;SDS011;9971;52.446;13.452;2022-12-07T03:44:51;5.58;;;4.72;;
19645;SDS011;9971;52.446;13.452;2022-12-07T03:49:55;4.93;;;4.40;;
19645;SDS011;9971;52.446;13.452;2022-12-07T03:54:58;6.07;;;4.97;;
19645;SDS011;9971;52.446;13.452;2022-12-07T04:00:04;5.67;;;5.17;;
19645;SDS011;9971;52.446;13.452;2022-12-07T04:05:07;6.37;;;5.60;;
19645;SDS011;9971;52.446;13.452;2022-12-07T04:10:09;5.58;;;4.97;;
19645;SDS011;9971;52.446;13.452;2022-12-07T04:15:11;6.75;;;5.58;;
19645;SDS011;9971;52.446;13.452;2022-12-07T04:20:14;5.97;;;5.37;;
19645;SDS011;9971;52.446;13.452;2022-12-07T04:25:16;7.33;;;6.03;;
19645;SDS011;9971;52.446;13.452;2022-12-07T04:30:18;6.97;;;6.28;;
19645;SDS011;9971;52.446;13.452;2022-12-07T04:35:21;7.75;;;6.95;;
19645;SDS011;9971;52.446;13.452;2022-12-07T04:40:23;9.13;;;8.00;;
19645;SDS011;9971;52.446;13.452;2022-12-07T04:45:26;9.73;;;8.13;;
19645;SDS011;9971;52.446;13.452;2022-12-07T04:50:28;8.43;;;7.22;;
19645;SDS011;9971;52.446;13.452;2022-12-07T04:55:31;9.35;;;8.35;;
19645;SDS011;9971;52.446;13.452;2022-12-07T05:00:33;11.30;;;9.03;;
19645;SDS011;9971;52.446;13.452;2022-12-07T05:05:36;10.68;;;9.08;;
19645;SDS011;9971;52.446;13.452;2022-12-07T05:10:38;11.33;;;9.58;;
19645;SDS011;9971;52.446;13.452;2022-12-07T05:15:41;10.15;;;8.90;;
19645;SDS011;9971;52.446;13.452;2022-12-07T05:20:44;11.57;;;9.75;;
19645;SDS011;9971;52.446;13.452;2022-12-07T05:25:47;12.27;;;10.10;;
19645;SDS011;9971;52.446;13.452;2022-12-07T05:30:49;11.95;;;9.40;;
19645;SDS011;9971;52.446;13.452;2022-12-07T05:35:52;12.13;;;9.48;;
19645;SDS011;9971;52.446;13.452;2022-12-07T05:40:54;10.55;;;9.45;;
19645;SDS011;9971;52.446;13.452;2022-12-07T05:45:57;11.05;;;9.30;;
19645;SDS011;9971;52.446;13.452;2022-12-07T05:50:59;13.28;;;10.20;;
19645;SDS011;9971;52.446;13.452;2022-12-07T05:56:01;12.18;;;9.85;;
19645;SDS011;9971;52.446;13.452;2022-12-07T06:01:04;12.78;;;10.15;;
19645;SDS011;9971;52.446;13.452;2022-12-07T06:06:06;13.38;;;11.35;;
19645;SDS011;9971;52.446;13.452;2022-12-07T06:11:09;15.40;;;11.05;;
19645;SDS011;9971;52.446;13.452;2022-12-07T06:16:27;12.27;;;10.10;;
19645;SDS011;9971;52.446;13.452;2022-12-07T06:21:30;13.22;;;10.60;;
19645;SDS011;9971;52.446;13.452;2022-12-07T06:26:32;15.32;;;12.30;;
19645;SDS011;9971;52.446;13.452;2022-12-07T06:31:35;14.03;;;10.48;;
19645;SDS011;9971;52.446;13.452;2022-12-07T06:36:36;12.47;;;11.17;;
19645;SDS011;9971;52.446;13.452;2022-12-07T06:41:38;14.17;;;11.53;;
19645;SDS011;9971;52.446;13.452;2022-12-07T06:46:41;12.80;;;10.80;;
19645;SDS011;9971;52.446;13.452;2022-12-07T06:51:43;14.45;;;11.48;;
19645;SDS011;9971;52.446;13.452;2022-12-07T06:56:45;12.93;;;11.37;;
19645;SDS011;9971;52.446;13.452;2022-12-07T07:01:48;14.47;;;11.38;;
19645;SDS011;9971;52.446;13.452;2022-12-07T07:06:50;14.50;;;12.28;;
19645;SDS011;9971;52.446;13.452;2022-12-07T07:11:53;15.37;;;13.37;;
19645;SDS011;9971;52.446;13.452;2022-12-07T07:16:56;15.13;;;12.03;;
19645;SDS011;9971;52.446;13.452;2022-12-07T07:21:58;14.43;;;11.35;;
19645;SDS011;9971;52.446;13.452;2022-12-07T07:27:00;13.10;;;10.08;;
19645;SDS011;9971;52.446;13.452;2022-12-07T07:32:03;12.13;;;10.08;;
19645;SDS011;9971;52.446;13.452;2022-12-07T07:37:05;11.40;;;10.08;;
19645;SDS011;9971;52.446;13.452;2022-12-07T07:42:08;8.83;;;7.75;;
19645;SDS011;9971;52.446;13.452;2022-12-07T07:47:10;8.80;;;7.90;;
19645;SDS011;9971;52.446;13.452;2022-12-07T07:52:12;8.30;;;7.20;;
19645;SDS011;9971;52.446;13.452;2022-12-07T07:57:16;11.40;;;8.80;;
19645;SDS011;9971;52.446;13.452;2022-12-07T08:02:18;9.20;;;7.70;;
19645;SDS011;9971;52.446;13.452;2022-12-07T08:07:19;7.30;;;6.60;;
19645;SDS011;9971;52.446;13.452;2022-12-07T08:12:22;7.53;;;6.10;;
19645;SDS011;9971;52.446;13.452;2022-12-07T08:17:24;7.70;;;6.80;;
19645;SDS011;9971;52.446;13.452;2022-12-07T08:22:26;7.15;;;6.22;;
19645;SDS011;9971;52.446;13.452;2022-12-07T08:27:29;7.95;;;6.33;;
19645;SDS011;9971;52.446;13.452;2022-12-07T08:32:32;5.62;;;4.85;;
19645;SDS011;9971;52.446;13.452;2022-12-07T08:37:34;4.83;;;4.33;;
19645;SDS011;9971;52.446;13.452;2022-12-07T08:42:36;5.35;;;3.55;;
19645;SDS011;9971;52.446;13.452;2022-12-07T08:47:40;2.77;;;2.12;;
19645;SDS011;9971;52.446;13.452;2022-12-07T08:52:43;1.67;;;1.57;;
19645;SDS011;9971;52.446;13.452;2022-12-07T08:57:45;2.20;;;1.43;;
19645;SDS011;9971;52.446;13.452;2022-12-07T09:02:47;2.07;;;1.97;;
19645;SDS011;9971;52.446;13.452;2022-12-07T09:07:51;1.80;;;1.60;;
19645;SDS011;9971;52.446;13.452;2022-12-07T09:12:52;2.40;;;1.93;;
19645;SDS011;9971;52.446;13.452;2022-12-07T09:17:54;1.87;;;1.52;;
19645;SDS011;9971;52.446;13.452;2022-12-07T09:22:57;1.60;;;1.43;;
19645;SDS011;9971;52.446;13.452;2022-12-07T09:27:59;1.57;;;1.40;;
19645;SDS011;9971;52.446;13.452;2022-12-07T09:33:02;2.03;;;1.70;;
19645;SDS011;9971;52.446;13.452;2022-12-07T09:38:04;2.65;;;2.05;;
19645;SDS011;9971;52.446;13.452;2022-12-07T09:43:11;1.55;;;1.45;;
19645;SDS011;9971;52.446;13.452;2022-12-07T09:48:14;1.90;;;1.77;;
19645;SDS011;9971;52.446;13.452;2022-12-07T09:53:23;1.45;;;1.35;;
19645;SDS011;9971;52.446;13.452;2022-12-07T09:58:27;1.73;;;1.43;;
19645;SDS011;9971;52.446;13.452;2022-12-07T10:03:29;2.80;;;1.27;;
19645;SDS011;9971;52.446;13.452;2022-12-07T10:08:32;1.80;;;1.70;;
19645;SDS011;9971;52.446;13.452;2022-12-07T10:13:43;1.62;;;1.40;;
19645;SDS011;9971;52.446;13.452;2022-12-07T10:18:47;3.63;;;1.60;;
19645;SDS011;9971;52.446;13.452;2022-12-07T10:29:12;1.90;;;1.80;;
19645;SDS011;9971;52.446;13.452;2022-12-07T10:34:22;1.60;;;1.50;;
19645;SDS011;9971;52.446;13.452;2022-12-07T10:39:26;1.37;;;1.27;;
19645;SDS011;9971;52.446;13.452;2022-12-07T10:44:29;1.75;;;1.42;;
19645;SDS011;9971;52.446;13.452;2022-12-07T10:49:38;1.85;;;1.37;;
19645;SDS011;9971;52.446;13.452;2022-12-07T10:55:04;1.87;;;1.70;;
19645;SDS011;9971;52.446;13.452;2022-12-07T11:00:19;1.87;;;1.73;;
19645;SDS011;9971;52.446;13.452;2022-12-07T11:05:27;3.22;;;1.90;;
19645;SDS011;9971;52.446;13.452;2022-12-07T11:10:36;2.87;;;1.98;;
19645;SDS011;9971;52.446;13.452;2022-12-07T11:15:47;1.60;;;1.50;;
19645;SDS011;9971;52.446;13.452;2022-12-07T11:20:51;3.63;;;2.00;;
19645;SDS011;9971;52.446;13.452;2022-12-07T11:26:01;2.07;;;1.70;;
19645;SDS011;9971;52.446;13.452;2022-12-07T11:31:21;1.93;;;1.83;;
19645;SDS011;9971;52.446;13.452;2022-12-07T11:41:34;3.03;;;2.40;;
19645;SDS011;9971;52.446;13.452;2022-12-07T11:46:40;2.05;;;1.72;;
19645;SDS011;9971;52.446;13.452;2022-12-07T11:51:42;2.00;;;1.73;;
19645;SDS011;9971;52.446;13.452;2022-12-07T11:56:44;2.13;;;1.97;;
19645;SDS011;9971;52.446;13.452;2022-12-07T12:01:49;1.67;;;1.57;;
19645;SDS011;9971;52.446;13.452;2022-12-07T12:06:49;1.70;;;1.60;;
19645;SDS011;9971;52.446;13.452;2022-12-07T12:22:37;3.98;;;1.60;;
19645;SDS011;9971;52.446;13.452;2022-12-07T12:27:37;2.93;;;1.50;;
19645;SDS011;9971;52.446;13.452;2022-12-07T12:32:40;3.70;;;1.60;;
19645;SDS011;9971;52.446;13.452;2022-12-07T12:37:42;3.30;;;1.77;;
19645;SDS011;9971;52.446;13.452;2022-12-07T12:42:45;3.23;;;1.60;;
19645;SDS011;9971;52.446;13.452;2022-12-07T12:47:55;3.17;;;1.60;;
19645;SDS011;9971;52.446;13.452;2022-12-07T12:53:03;2.47;;;1.50;;
19645;SDS011;9971;52.446;13.452;2022-12-07T13:03:30;2.47;;;1.77;;
19645;SDS011;9971;52.446;13.452;2022-12-07T13:08:31;2.93;;;1.70;;
19645;SDS011;9971;52.446;13.452;2022-12-07T13:13:34;2.23;;;1.70;;
19645;SDS011;9971;52.446;13.452;2022-12-07T13:18:36;3.83;;;1.57;;
19645;SDS011;9971;52.446;13.452;2022-12-07T13:23:38;2.37;;;1.37;;
19645;SDS011;9971;52.446;13.452;2022-12-07T13:29:17;2.27;;;1.37;;
19645;SDS011;9971;52.446;13.452;2022-12-07T13:39:32;3.00;;;1.23;;
19645;SDS011;9971;52.446;13.452;2022-12-07T13:44:34;1.47;;;1.33;;
19645;SDS011;9971;52.446;13.452;2022-12-07T13:49:37;3.40;;;1.67;;
19645;SDS011;9971;52.446;13.452;2022-12-07T13:54:46;1.73;;;1.00;;
19645;SDS011;9971;52.446;13.452;2022-12-07T13:59:50;3.00;;;1.40;;
19645;SDS011;9971;52.446;13.452;2022-12-07T14:05:05;3.33;;;1.53;;
19645;SDS011;9971;52.446;13.452;2022-12-07T14:09:55;2.50;;;1.70;;
19645;SDS011;9971;52.446;13.452;2022-12-07T14:14:59;3.67;;;1.47;;
19645;SDS011;9971;52.446;13.452;2022-12-07T14:20:03;1.67;;;1.13;;
19645;SDS011;9971;52.446;13.452;2022-12-07T14:30:17;2.70;;;1.27;;
19645;SDS011;9971;52.446;13.452;2022-12-07T14:35:19;5.90;;;1.97;;
19645;SDS011;9971;52.446;13.452;2022-12-07T14:40:24;2.42;;;1.75;;
19645;SDS011;9971;52.446;13.452;2022-12-07T14:45:25;3.73;;;1.70;;
19645;SDS011;9971;52.446;13.452;2022-12-07T14:50:35;2.98;;;1.42;;
19645;SDS011;9971;52.446;13.452;2022-12-07T14:55:30;2.13;;;1.33;;
19645;SDS011;9971;52.446;13.452;2022-12-07T15:00:32;2.53;;;1.67;;
19645;SDS011;9971;52.446;13.452;2022-12-07T15:05:34;3.37;;;1.50;;
19645;SDS011;9971;52.446;13.452;2022-12-07T15:10:36;2.73;;;1.57;;
19645;SDS011;9971;52.446;13.452;2022-12-07T15:15:38;3.20;;;1.80;;
19645;SDS011;9971;52.446;13.452;2022-12-07T15:20:41;2.92;;;1.62;;
19645;SDS011;9971;52.446;13.452;2022-12-07T15:25:44;2.97;;;1.63;;
19645;SDS011;9971;52.446;13.452;2022-12-07T15:30:45;2.70;;;1.60;;
19645;SDS011;9971;52.446;13.452;2022-12-07T15:35:48;3.65;;;1.62;;
19645;SDS011;9971;52.446;13.452;2022-12-07T15:40:50;2.05;;;1.52;;
19645;SDS011;9971;52.446;13.452;2022-12-07T15:45:53;1.70;;;1.42;;
19645;SDS011;9971;52.446;13.452;2022-12-07T15:56:05;3.83;;;2.27;;
19645;SDS011;9971;52.446;13.452;2022-12-07T16:01:09;5.10;;;1.70;;
19645;SDS011;9971;52.446;13.452;2022-12-07T16:06:11;2.63;;;1.70;;
19645;SDS011;9971;52.446;13.452;2022-12-07T16:11:13;2.13;;;1.40;;
19645;SDS011;9971;52.446;13.452;2022-12-07T16:16:15;4.08;;;1.60;;
19645;SDS011;9971;52.446;13.452;2022-12-07T16:21:17;5.70;;;1.73;;
19645;SDS011;9971;52.446;13.452;2022-12-07T16:26:20;4.28;;;1.80;;
19645;SDS011;9971;52.446;13.452;2022-12-07T16:31:23;5.00;;;1.93;;
19645;SDS011;9971;52.446;13.452;2022-12-07T16:36:23;3.60;;;1.60;;
19645;SDS011;9971;52.446;13.452;2022-12-07T16:41:26;1.90;;;1.50;;
19645;SDS011;9971;52.446;13.452;2022-12-07T16:46:28;3.13;;;1.77;;
19645;SDS011;9971;52.446;13.452;2022-12-07T16:51:30;4.40;;;1.55;;
19645;SDS011;9971;52.446;13.452;2022-12-07T16:56:32;2.23;;;1.83;;
19645;SDS011;9971;52.446;13.452;2022-12-07T17:01:34;5.20;;;2.00;;
19645;SDS011;9971;52.446;13.452;2022-12-07T17:11:51;3.93;;;1.80;;
19645;SDS011;9971;52.446;13.452;2022-12-07T17:16:53;1.45;;;1.25;;
19645;SDS011;9971;52.446;13.452;2022-12-07T17:21:55;3.35;;;1.55;;
19645;SDS011;9971;52.446;13.452;2022-12-07T17:26:58;2.30;;;1.67;;
19645;SDS011;9971;52.446;13.452;2022-12-07T17:32:00;4.73;;;2.10;;
19645;SDS011;9971;52.446;13.452;2022-12-07T17:37:04;3.03;;;1.67;;
19645;SDS011;9971;52.446;13.452;2022-12-07T17:42:07;2.20;;;1.67;;
19645;SDS011;9971;52.446;13.452;2022-12-07T17:47:14;1.70;;;1.43;;
19645;SDS011;9971;52.446;13.452;2022-12-07T17:52:16;3.95;;;1.35;;
19645;SDS011;9971;52.446;13.452;2022-12-07T17:57:24;2.30;;;1.40;;
19645;SDS011;9971;52.446;13.452;2022-12-07T18:02:27;1.82;;;1.20;;
19645;SDS011;9971;52.446;13.452;2022-12-07T18:07:29;2.42;;;1.40;;
19645;SDS011;9971;52.446;13.452;2022-12-07T18:12:32;2.30;;;1.35;;
19645;SDS011;9971;52.446;13.452;2022-12-07T18:17:34;1.75;;;1.05;;
19645;SDS011;9971;52.446;13.452;2022-12-07T18:22:37;1.67;;;1.15;;
19645;SDS011;9971;52.446;13.452;2022-12-07T18:27:39;1.52;;;1.35;;
19645;SDS011;9971;52.446;13.452;2022-12-07T18:32:42;3.40;;;1.82;;
19645;SDS011;9971;52.446;13.452;2022-12-07T18:37:45;2.63;;;1.67;;
19645;SDS011;9971;52.446;13.452;2022-12-07T18:42:47;1.02;;;0.88;;
19645;SDS011;9971;52.446;13.452;2022-12-07T18:47:50;1.30;;;1.30;;
19645;SDS011;9971;52.446;13.452;2022-12-07T18:52:55;0.80;;;0.50;;
19645;SDS011;9971;52.446;13.452;2022-12-07T18:57:55;1.10;;;1.00;;
19645;SDS011;9971;52.446;13.452;2022-12-07T19:02:57;1.73;;;1.43;;
19645;SDS011;9971;52.446;13.452;2022-12-07T19:08:00;2.47;;;1.63;;
19645;SDS011;9971;52.446;13.452;2022-12-07T19:13:01;3.10;;;1.67;;
19645;SDS011;9971;52.446;13.452;2022-12-07T19:18:03;2.47;;;1.85;;
19645;SDS011;9971;52.446;13.452;2022-12-07T19:23:06;1.82;;;1.10;;
19645;SDS011;9971;52.446;13.452;2022-12-07T19:28:09;2.92;;;1.77;;
19645;SDS011;9971;52.446;13.452;2022-12-07T19:33:11;1.87;;;1.57;;
19645;SDS011;9971;52.446;13.452;2022-12-07T19:38:13;1.75;;;1.50;;
19645;SDS011;9971;52.446;13.452;2022-12-07T19:43:16;3.15;;;1.65;;
19645;SDS011;9971;52.446;13.452;2022-12-07T19:48:19;1.95;;;1.70;;
19645;SDS011;9971;52.446;13.452;2022-12-07T19:53:22;2.42;;;1.80;;
19645;SDS011;9971;52.446;13.452;2022-12-07T19:58:24;2.55;;;1.65;;
19645;SDS011;9971;52.446;13.452;2022-12-07T20:03:27;1.05;;;0.95;;
19645;SDS011;9971;52.446;13.452;2022-12-07T20:08:29;1.98;;;1.30;;
19645;SDS011;9971;52.446;13.452;2022-12-07T20:13:31;1.67;;;1.20;;
19645;SDS011;9971;52.446;13.452;2022-12-07T20:18:34;1.00;;;0.95;;
19645;SDS011;9971;52.446;13.452;2022-12-07T20:23:36;1.07;;;0.80;;
19645;SDS011;9971;52.446;13.452;2022-12-07T20:28:39;0.87;;;0.87;;
19645;SDS011;9971;52.446;13.452;2022-12-07T20:33:41;0.67;;;0.67;;
19645;SDS011;9971;52.446;13.452;2022-12-07T20:38:43;0.40;;;0.40;;
19645;SDS011;9971;52.446;13.452;2022-12-07T20:43:45;0.60;;;0.60;;
19645;SDS011;9971;52.446;13.452;2022-12-07T20:48:47;0.60;;;0.60;;
19645;SDS011;9971;52.446;13.452;2022-12-07T20:53:50;1.53;;;1.43;;
19645;SDS011;9971;52.446;13.452;2022-12-07T20:58:54;0.53;;;0.53;;
19645;SDS011;9971;52.446;13.452;2022-12-07T21:03:55;0.50;;;0.50;;
19645;SDS011;9971;52.446;13.452;2022-12-07T21:08:58;0.85;;;0.70;;
19645;SDS011;9971;52.446;13.452;2022-12-07T21:14:00;0.70;;;0.70;;
19645;SDS011;9971;52.446;13.452;2022-12-07T21:19:02;0.88;;;0.88;;
19645;SDS011;9971;52.446;13.452;2022-12-07T21:24:04;0.53;;;0.53;;
19645;SDS011;9971;52.446;13.452;2022-12-07T21:29:08;0.57;;;0.57;;
19645;SDS011;9971;52.446;13.452;2022-12-07T21:34:10;1.10;;;0.70;;
19645;SDS011;9971;52.446;13.452;2022-12-07T21:39:12;0.50;;;0.50;;
19645;SDS011;9971;52.446;13.452;2022-12-07T21:44:15;0.57;;;0.57;;
19645;SDS011;9971;52.446;13.452;2022-12-07T21:49:18;0.60;;;0.60;;
19645;SDS011;9971;52.446;13.452;2022-12-07T21:54:20;2.35;;;1.85;;
19645;SDS011;9971;52.446;13.452;2022-12-07T21:59:23;2.00;;;1.30;;
19645;SDS011;9971;52.446;13.452;2022-12-07T22:04:26;3.12;;;1.72;;
19645;SDS011;9971;52.446;13.452;2022-12-07T22:09:28;1.98;;;1.35;;
19645;SDS011;9971;52.446;13.452;2022-12-07T22:14:31;1.32;;;0.88;;
19645;SDS011;9971;52.446;13.452;2022-12-07T22:19:39;0.57;;;0.30;;
19645;SDS011;9971;52.446;13.452;2022-12-07T22:24:41;0.45;;;0.45;;
19645;SDS011;9971;52.446;13.452;2022-12-07T22:29:43;0.40;;;0.40;;
19645;SDS011;9971;52.446;13.452;2022-12-07T22:34:46;0.42;;;0.40;;
19645;SDS011;9971;52.446;13.452;2022-12-07T22:39:49;0.28;;;0.28;;
19645;SDS011;9971;52.446;13.452;2022-12-07T22:44:51;0.75;;;0.53;;
19645;SDS011;9971;52.446;13.452;2022-12-07T22:49:54;0.60;;;0.60;;
19645;SDS011;9971;52.446;13.452;2022-12-07T22:54:56;0.42;;;0.42;;
19645;SDS011;9971;52.446;13.452;2022-12-07T22:59:59;0.40;;;0.40;;
19645;SDS011;9971;52.446;13.452;2022-12-07T23:05:01;0.50;;;0.50;;
19645;SDS011;9971;52.446;13.452;2022-12-07T23:10:03;0.50;;;0.50;;
19645;SDS011;9971;52.446;13.452;2022-12-07T23:15:06;0.40;;;0.40;;
19645;SDS011;9971;52.446;13.452;2022-12-07T23:20:09;1.22;;;0.60;;
19645;SDS011;9971;52.446;13.452;2022-12-07T23:25:12;0.85;;;0.82;;
19645;SDS011;9971;52.446;13.452;2022-12-07T23:30:14;1.98;;;1.42;;
19645;SDS011;9971;52.446;13.452;2022-12-07T23:35:17;1.25;;;1.20;;
19645;SDS011;9971;52.446;13.452;2022-12-07T23:40:20;0.68;;;0.68;;
19645;SDS011;9971;52.446;13.452;2022-12-07T23:45:22;0.37;;;0.35;;
19645;SDS011;9971;52.446;13.452;2022-12-07T23:50:25;0.13;;;0.13;;
19645;SDS011;9971;52.446;13.452;2022-12-07T23:55:27;0.30;;;0.28;;
